Tiempo atmosférico en la estación meteorológica de Aldeanueva de Serrezuela, Segovia (1135 m.)



Fecha
DESCASC
Temp. máxima en grados centígrados (hora)
DESCASC
Temp. mínima en grados centígrados (hora)
DESCASC
Temp. media en grados centígrados
DESCASC
Racha de viento máxima en m/sg (hora)
DESCASC
Velocidad máxima media en intervalos de 10 minutos(hora)
DESCASC
Precipitaciones diarias en mm
DESCASC
Precipitaciones de 00:00 a 06:00 en mm
DESCASC
Precipitaciones de 06:00 a 12:00 en mm
DESCASC
Precipitaciones de 12:00 a 18:00 en mm
DESCASC
Precipitaciones de 18:00 a 24:00 en mm
DESCASC
13-01-2021 5 (14:00) -2.9 (08:50) 1 3.61 (15:00) 2.78 (22:00) 0 0 0 0 0
12-01-2021 2.7 (12:50) -7.8 (02:40) -2.6 7.22 (02:50) 5 (02:50) 0 0 0 0 0
11-01-2021 -0.8 (14:10) -6.8 (00:50) -3.8 7.5 (15:00) 5 (15:00) 0.2 0 0 0.2 0
10-01-2021 -0.7 (13:20) -6.7 (23:40) -3.7 6.39 (18:20) 3.89 (18:20) 0.4 0 0.4 0 0
09-01-2021 -2.7 (23:00) -4.4 (-00:0) -3.6 13.61 (10:40) 9.17 (00:40) 0 0 0 0 0
08-01-2021 -1.2 (15:20) -7.8 (-00:0) -4.5 13.61 (20:30) 8.61 (20:50) 0 0 0 0 0
07-01-2021 1.3 (14:30) -3.7 (-00:0) -1.2 9.44 (07:20) 6.39 (06:50) 0 0 0 0 0
06-01-2021 1 (15:20) -5.1 (-00:0) -2 5.28 (13:50) 3.89 (22:10) 0 0 0 0 0
05-01-2021 0.8 (16:00) -5.6 (-00:0) -2.4 5.28 (13:40) 3.33 (13:20) 0.8 0 0.4 0.4 0
04-01-2021 0.3 (16:10) -4.1 (-00:0) -1.9 11.11 (13:30) 7.22 (13:30) 1 0 0 1 0
03-01-2021 0 (15:20) -5.1 (-00:0) -2.5 11.11 (20:00) 7.5 (18:50) 0.8 0 0 0.8 0
02-01-2021 -1.1 (15:50) -6.2 (-00:0) -3.6 10.56 (16:00) 6.11 (16:00) 0.2 0 0 0.2 0
01-01-2021 0 (15:50) -3.4 (-00:0) -1.7 13.33 (18:10) 7.78 (17:50) 2.8 0 1 1.8 0
31-12-2020 2.6 (16:40) -0.6 (-00:0) 1 14.17 (16:20) 9.44 (15:40) 1.6 0 0 1 0.6
30-12-2020 1.1 (13:50) -3.7 (-00:0) -1.3 11.11 (23:50) 7.78 (13:50) 0 0 0 0 0
29-12-2020 2.8 (16:10) -2.9 (-00:0) -0.1 14.72 (00:10) 10 (00:40) 0 0 0 0 0
28-12-2020 3.9 (03:20) -1.1 (-00:0) 1.4 25 (01:00) 17.78 (01:10) 6.4 6.4 0 0 0
27-12-2020 5.3 (14:30) -1.9 (-00:0) 1.7 27.22 (22:20) 17.5 (23:50) 2.6 0 0 0 2.6
26-12-2020 2.2 (16:30) -4 (-00:0) -0.9 7.78 (14:30) 4.72 (14:30) 0 0 0 0 0
25-12-2020 2.4 (13:30) -3.5 (-00:0) -0.5 11.67 (16:10) 7.22 (15:30) 0 0 0 0 0
24-12-2020 5.3 (00:00) 0.1 (00:00) 2.7 5.83 (15:20) 3.89 (14:50) 1 1 0 0 0
23-12-2020 10.9 (02:10) 5.1 (23:20) 8 9.44 (13:10) 6.39 (13:10) 2 0 0 0 2
21-12-2020 9.6 (22:40) 4.8 (00:00) 7.2 10 (05:30) 6.67 (03:00) 0.6 0.4 0 0.2 0
20-12-2020 7 (15:30) 2.7 (00:00) 4.9 7.78 (06:20) 5.28 (14:40) 0.4 0.2 0 0 0.2
19-12-2020 7.3 (12:20) 3.4 (00:00) 5.4 10.83 (05:50) 7.5 (05:20) 7.6 1.2 0.2 2.6 3.6
18-12-2020 10 (14:40) 0.1 (00:00) 5.1 8.33 (14:20) 5.56 (15:30) 0 0 0 0 0
17-12-2020 7.1 (14:20) 3.1 (00:00) 5.1 4.44 (06:20) 3.06 (06:30) 0 0 0 0 0

Gráficas

Temp. máximas Temp. mínimas Temp. medias Precipitaciones Rachas de viento máximas Velocidades máximas media en intervalos de 10 minutos

Datos horarios

Fecha y hora oficial Temperatura (ºC) Velocidad del viento (km/h) Dirección del viento Racha (km/h) Dirección de racha Precipitación (mm) Presión (hPa) Tendencia (hPa) Humedad (%)
2021-01-15 23:00:00 -0.4 0 Calma 5 Norte 0 -- -- 97
2021-01-15 22:00:00 -0.2 0 Calma 5 Sudeste 0 -- -- 97
2021-01-15 21:00:00 -0.9 4 Este 9 Nordeste 0 -- -- 96
2021-01-15 20:00:00 -0.1 3 Este 6 Este 0 -- -- 95
2021-01-15 19:00:00 0.6 3 Nordeste 8 Norte 0 -- -- 92
2021-01-15 18:00:00 1.5 4 Norte 10 Norte 0 -- -- 88
2021-01-15 17:00:00 2.6 4 Norte 14 Norte 0 -- -- 85
2021-01-15 16:00:00 2.9 9 Norte 21 Norte 0 -- -- 84
2021-01-15 15:00:00 2.7 9 Norte 18 Norte 0 -- -- 86
2021-01-15 14:00:00 2.6 9 Norte 20 Norte 0 -- -- 86
2021-01-15 13:00:00 2.4 12 Norte 22 Nordeste 0 -- -- 86
2021-01-15 12:00:00 2.1 10 Norte 21 Norte 0 -- -- 90
2021-01-15 11:00:00 1.3 10 Nordeste 17 Nordeste 0 -- -- 94
2021-01-15 10:00:00 0.5 0 Calma 5 Oeste 0 -- -- 99
2021-01-15 09:00:00 -0.7 0 Calma 12 Noroeste 0 -- -- 98
2021-01-15 08:00:00 -0.7 4 Oeste 8 Oeste 0 -- -- 99
2021-01-15 07:00:00 0 4 Noroeste 8 Noroeste 0 -- -- 100
2021-01-15 06:00:00 0.3 5 Noroeste 14 Norte 0 -- -- 100
2021-01-15 05:00:00 0.7 7 Norte 16 Norte 0 -- -- 100
2021-01-15 04:00:00 1 2 Nordeste 8 Norte 0 -- -- 100
2021-01-15 03:00:00 1.6 5 Norte 10 Norte 0 -- -- 100
2021-01-15 02:00:00 2 3 Norte 11 Nordeste 0 -- -- 100
2021-01-15 01:00:00 2 7 Norte 22 Norte 0 -- -- 100
2021-01-15 00:00:00 2.2 10 Norte 23 Norte 0 -- -- 100
2021-01-14 23:00:00 2.2 6 Norte 13 Norte 0 -- -- 99
2021-01-14 22:00:00 2.2 3 Norte 7 Norte 0 -- -- 99
2021-01-14 21:00:00 2.1 5 Nordeste 13 Nordeste 0 -- -- 98
2021-01-14 20:00:00 2.4 6 Nordeste 19 Nordeste 0 -- -- 96
2021-01-14 19:00:00 2.4 6 Nordeste 12 Norte 0 -- -- 89
2021-01-14 18:00:00 2.9 3 Nordeste 6 Norte 0 -- -- 70
2021-01-14 17:00:00 4.1 0 Calma 8 Oeste 0 -- -- 65
2021-01-14 16:00:00 3.3 5 Noroeste 13 Noroeste 0 -- -- 71
2021-01-14 15:00:00 5.6 6 Noroeste 12 Noroeste 0 -- -- 57
2021-01-14 14:00:00 6.8 4 Sudoeste 11 Sudoeste 0 -- -- 44
2021-01-14 13:00:00 4.5 3 Norte 5 Norte 0 -- -- 60
2021-01-14 12:00:00 3.8 0 Calma 9 Noroeste 0 -- -- 65
2021-01-14 11:00:00 3.2 3 Noroeste 8 Noroeste 0 -- -- 58
2021-01-14 10:00:00 3 0 Calma 3 Sudeste 0 -- -- 60
2021-01-14 09:00:00 1.4 0 Calma 5 Sur 0 -- -- 60
2021-01-14 08:00:00 1.1 0 Calma 5 Sur 0 -- -- 61
2021-01-14 07:00:00 0.3 4 Sur 6 Oeste 0 -- -- 56
2021-01-14 06:00:00 1 4 Oeste 6 Noroeste 0 -- -- 53
2021-01-14 05:00:00 0.1 6 Sudoeste 8 Sudoeste 0 -- -- 62
2021-01-14 04:00:00 0.2 5 Sudoeste 11 Sudoeste 0 -- -- 62
2021-01-14 03:00:00 -0.8 10 Sudoeste 13 Sudoeste 0 -- -- 78
2021-01-14 02:00:00 -0.8 8 Sudoeste 10 Oeste 0 -- -- 79
2021-01-14 01:00:00 0.4 7 Sudoeste 10 Sudoeste 0 -- -- 59
2021-01-14 00:00:00 0.3 8 Sudoeste 12 Sudoeste 0 -- -- 65
2021-01-13 23:00:00 0.3 8 Sudoeste 12 Sudoeste 0 -- -- 61
2021-01-13 22:00:00 0.7 10 Sudoeste 12 Sudoeste 0 -- -- 56
2021-01-13 21:00:00 1.2 3 Sur 5 Sur 0 -- -- 56
2021-01-13 20:00:00 0.6 0 Calma 4 Sudoeste 0 -- -- 66
2021-01-13 19:00:00 0.7 3 Sudoeste 8 Oeste 0 -- -- 71
2021-01-13 18:00:00 2.8 7 Oeste 11 Sudoeste 0 -- -- 63
2021-01-13 17:00:00 4 7 Sudoeste 12 Oeste 0 -- -- 68
2021-01-13 16:00:00 4.6 6 Oeste 13 Oeste 0 -- -- 62
2021-01-13 15:00:00 4.8 8 Oeste 13 Oeste 0 -- -- 64
2021-01-13 14:00:00 5 4 Noroeste 9 Oeste 0 -- -- 66
2021-01-13 13:00:00 4.2 2 Noroeste 6 Noroeste 0 -- -- 68
2021-01-13 12:00:00 2.5 3 Noroeste 7 Oeste 0 -- -- 72
2021-01-13 11:00:00 2.5 0 Calma 3 Nordeste 0 -- -- 75
2021-01-13 10:00:00 -0.7 3 Nordeste 5 Nordeste 0 -- -- 92
2021-01-13 09:00:00 -2.8 2 Nordeste 4 Este 0 -- -- 93
2021-01-13 08:00:00 -2.6 2 Nordeste 5 Sudoeste 0 -- -- 90
2021-01-13 07:00:00 -2 3 Sudoeste 4 Sudoeste 0 -- -- 88
2021-01-13 06:00:00 -2 0 Calma 3 Sur 0 -- -- 85
2021-01-13 05:00:00 -2.2 0 Calma 5 Sudoeste 0 -- -- 82
2021-01-13 04:00:00 -2.2 3 Oeste 7 Sudoeste 0 -- -- 84
2021-01-13 03:00:00 -1.6 3 Sudoeste 5 Sudoeste 0 -- -- 83
2021-01-13 02:00:00 -1.6 3 Sur 4 Sur 0 -- -- 82
2021-01-13 01:00:00 -1.8 0 Calma 3 Oeste 0 -- -- 79
2021-01-13 00:00:00 -1.1 0 Calma -- -- 0 -- -- 78
2021-01-12 23:00:00 -1.7 5 Sudoeste 8 Sudoeste 0 -- -- 82
2021-01-12 22:00:00 -1.8 4 Sudoeste 8 Sudoeste 0 -- -- 82
2021-01-12 21:00:00 -2.5 7 Sudoeste 8 Sudoeste 0 -- -- 84
2021-01-12 20:00:00 -2.3 5 Sudoeste 11 Sudoeste 0 -- -- 84
2021-01-12 19:00:00 -2.2 6 Sudoeste 8 Sudoeste 0 -- -- 84
2021-01-12 18:00:00 -0.8 6 Sudoeste 8 Oeste 0 -- -- 79
2021-01-12 17:00:00 1.1 4 Noroeste 7 Noroeste 0 -- -- 75
2021-01-12 16:00:00 1.5 3 Noroeste 9 Noroeste 0 -- -- 75
2021-01-12 15:00:00 1.7 2 Noroeste 9 Noroeste 0 -- -- 77
2021-01-12 14:00:00 1.6 5 Noroeste 9 Noroeste 0 -- -- 76
2021-01-12 13:00:00 2 2 Norte 5 Norte 0 -- -- 76
2021-01-12 12:00:00 1 0 Calma 5 Sudoeste 0 -- -- 82
2021-01-12 11:00:00 -1.6 2 Noroeste 7 Noroeste 0 -- -- 89
2021-01-12 10:00:00 -2.1 3 Sur 6 Sur 0 -- -- 92
2021-01-12 09:00:00 -4 0 Calma 3 Sudoeste 0 -- -- 95
2021-01-12 08:00:00 -4.7 2 Sur 4 Sur 0 -- -- 97
2021-01-12 07:00:00 -5.3 3 Sudoeste 12 Sudoeste 0 -- -- 97
2021-01-12 06:00:00 -5.8 11 Sudoeste 17 Sudoeste 0 -- -- 97
2021-01-12 05:00:00 -6.4 14 Sudoeste 18 Sudoeste 0 -- -- 97
2021-01-12 04:00:00 -6 12 Sudoeste 19 Sudoeste 0 -- -- 97
2021-01-12 03:00:00 -6.5 17 Sudoeste 26 Sudoeste 0 -- -- 97
2021-01-12 02:00:00 -5.2 11 Sudoeste 14 Sudoeste 0 -- -- 86
2021-01-12 01:00:00 -5.3 9 Sur 11 Sur 0 -- -- 92
2021-01-12 00:00:00 -4.8 2 Sudoeste 5 Sudoeste 0 -- -- 91
2021-01-11 23:00:00 -4.3 3 Sur 5 Sur 0 -- -- 91
2021-01-11 22:00:00 -4.4 0 Calma 3 Sur 0 -- -- 91
2021-01-11 21:00:00 -4.7 0 Calma 4 Este 0 -- -- 90
2021-01-11 20:00:00 -4.2 2 Nordeste 9 Norte 0 -- -- 88
2021-01-11 19:00:00 -3.6 4 Nordeste 15 Nordeste 0 -- -- 85
2021-01-11 18:00:00 -2.6 4 Norte 15 Norte 0 -- -- 84
2021-01-11 17:00:00 -1.3 6 Norte 24 Norte 0 -- -- 82
2021-01-11 16:00:00 -1 17 Norte 27 Norte 0 -- -- 79
2021-01-11 15:00:00 -0.9 18 Norte 27 Norte 0 -- -- 80
2021-01-11 14:00:00 -0.9 11 Norte 27 Norte 0 -- -- 80
2021-01-11 13:00:00 -1.6 9 Norte 22 Norte 0.2 -- -- 83
2021-01-11 12:00:00 -1.9 12 Norte 23 Norte 0 -- -- 84
2021-01-11 11:00:00 -2.9 12 Nordeste 21 Nordeste 0 -- -- 86
2021-01-11 10:00:00 -4.1 6 Nordeste 14 Nordeste 0 -- -- 93
2021-01-11 09:00:00 -6 6 Nordeste 13 Nordeste 0 -- -- 94
2021-01-11 08:00:00 -6.1 6 Nordeste 18 Nordeste 0 -- -- 94
2021-01-11 07:00:00 -5.8 13 Nordeste 20 Nordeste 0 -- -- 92
2021-01-11 06:00:00 -6.4 6 Nordeste 12 Nordeste 0 -- -- 95
2021-01-11 05:00:00 -6.6 5 Nordeste 10 Nordeste 0 -- -- 94
2021-01-11 04:00:00 -6.2 3 Nordeste 10 Nordeste 0 -- -- 95
2021-01-11 03:00:00 -6 9 Nordeste 15 Nordeste 0 -- -- 94
2021-01-11 02:00:00 -6.3 8 Nordeste 19 Nordeste 0 -- -- 94
2021-01-11 01:00:00 -6.5 8 Nordeste 12 Nordeste 0 -- -- 95
2021-01-11 00:00:00 -6.7 7 Nordeste 10 Nordeste 0 -- -- 93
2021-01-10 23:00:00 -6.3 5 Este 14 Nordeste 0 -- -- 92
2021-01-10 22:00:00 -5.8 5 Este 14 Nordeste 0 -- -- 94
2021-01-10 21:00:00 -4.7 11 Nordeste 21 Nordeste 0 -- -- 93
2021-01-10 20:00:00 -3.7 12 Nordeste 20 Nordeste 0 -- -- 95
2021-01-10 19:00:00 -3.3 12 Nordeste 23 Norte 0 -- -- 94
2021-01-10 18:00:00 -2.6 12 Norte 22 Norte 0 -- -- 92
2021-01-10 17:00:00 -2 12 Nordeste 21 Norte 0 -- -- 91
2021-01-10 16:00:00 -1.5 10 Norte 18 Norte 0 -- -- 88
2021-01-10 15:00:00 -1 12 Norte 20 Norte 0 -- -- 88
2021-01-10 14:00:00 -0.8 9 Nordeste 22 Nordeste 0 -- -- 88
2021-01-10 13:00:00 -1.3 11 Nordeste 18 Nordeste 0 -- -- 96
2021-01-10 12:00:00 -2.2 0 Calma -- -- 0.4 -- -- 100
2021-01-10 11:00:00 -3.1 0 Calma -- -- 0 -- -- 100
2021-01-10 10:00:00 -3.8 0 Calma -- -- 0 -- -- 100
2021-01-10 09:00:00 -4.7 0 Calma 4 Nordeste 0 -- -- 100
2021-01-10 08:00:00 -4.7 0 Calma 9 Nordeste 0 -- -- 100
2021-01-10 07:00:00 -3.8 5 Nordeste 10 Nordeste 0 -- -- 100
2021-01-10 06:00:00 -3.5 5 Este 13 Nordeste 0 -- -- 100
2021-01-10 05:00:00 -3.3 6 Este 14 Este 0 -- -- 100
2021-01-10 04:00:00 -3.9 11 Nordeste 17 Este 0 -- -- 100
2021-01-10 03:00:00 -4.5 9 Nordeste 15 Nordeste 0 -- -- 99
2021-01-10 02:00:00 -4.1 9 Nordeste 18 Nordeste 0 -- -- 98
2021-01-10 01:00:00 -3.2 5 Nordeste 15 Sudeste 0 -- -- 97
2021-01-10 00:00:00 -2.8 7 Este 28 Este 0 -- -- 97
2021-01-09 23:00:00 -2.7 21 Este 41 Este 0 -- -- 97
2021-01-09 22:00:00 -3.4 28 Este 45 Este 0 -- -- 98
2021-01-09 21:00:00 -3.6 16 Nordeste 42 Este 0 -- -- 99
2021-01-09 20:00:00 -3.3 22 Este 42 Este 0 -- -- 99
2021-01-09 19:00:00 -3.4 25 Este 42 Este 0 -- -- 99
2021-01-09 18:00:00 -3.4 21 Este 42 Este 0 -- -- 99
2021-01-09 17:00:00 -3.3 26 Este 49 Nordeste 0 -- -- 99
2021-01-09 16:00:00 -3.2 30 Nordeste 46 Nordeste 0 -- -- 99
2021-01-09 15:00:00 -3.2 28 Este 46 Nordeste 0 -- -- 99
2021-01-09 14:00:00 -3.4 25 Nordeste 42 Este 0 -- -- 100
2021-01-09 13:00:00 -3.2 22 Nordeste 39 Este 0 -- -- 100
2021-01-09 12:00:00 -3.4 24 Nordeste 43 Este 0 -- -- 100
2021-01-09 11:00:00 -3.4 29 Nordeste 49 Nordeste 0 -- -- 100
2021-01-09 10:00:00 -3.5 27 Nordeste 42 Nordeste 0 -- -- 100
2021-01-09 09:00:00 -3.8 23 Nordeste 42 Nordeste 0 -- -- 100
2021-01-09 08:00:00 -3.9 27 Nordeste 42 Nordeste 0 -- -- 99
2021-01-09 07:00:00 -4.1 27 Nordeste 43 Nordeste 0 -- -- 99
2021-01-09 06:00:00 -4.3 24 Nordeste 47 Este 0 -- -- 99
2021-01-09 05:00:00 -4.4 27 Nordeste 42 Nordeste 0 -- -- 98
2021-01-09 04:00:00 -4.3 24 Nordeste 46 Nordeste 0 -- -- 98
2021-01-09 03:00:00 -4.2 26 Nordeste 40 Nordeste 0 -- -- 98
2021-01-09 02:00:00 -4.2 26 Este 45 Este 0 -- -- 98
2021-01-09 01:00:00 -4.1 28 Este 48 Este 0 -- -- 97
2021-01-09 00:00:00 -3.7 31 Este 49 Este 0 -- -- 97
2021-01-08 23:00:00 -3.5 24 Este 46 Este 0 -- -- 96
2021-01-08 22:00:00 -3.3 27 Este 45 Este 0 -- -- 95
2021-01-08 21:00:00 -3.2 29 Este 49 Este 0 -- -- 94
2021-01-08 20:00:00 -3.2 28 Este 44 Este 0 -- -- 93
2021-01-08 19:00:00 -3 27 Este 44 Este 0 -- -- 93
2021-01-08 18:00:00 -2.5 24 Este 39 Este 0 -- -- 93
2021-01-08 17:00:00 -1.9 20 Este 38 Este 0 -- -- 92
2021-01-08 16:00:00 -1.5 21 Este 34 Este 0 -- -- 85
2021-01-08 15:00:00 -1.4 17 Nordeste 26 Nordeste 0 -- -- 80
2021-01-08 14:00:00 -2 14 Nordeste 24 Nordeste 0 -- -- 83
2021-01-08 13:00:00 -2.4 17 Nordeste 30 Nordeste 0 -- -- 79
2021-01-08 12:00:00 -1.7 18 Este 39 Este 0 -- -- 69
2021-01-08 11:00:00 -2.3 17 Este 32 Este 0 -- -- 70
2021-01-08 10:00:00 -3.7 16 Este 31 Este 0 -- -- 77
2021-01-08 09:00:00 -6.1 13 Nordeste 21 Este 0 -- -- 91
2021-01-08 08:00:00 -5.6 15 Nordeste 30 Este 0 -- -- 84
2021-01-08 07:00:00 -4.9 18 Este 27 Este 0 -- -- 83
2021-01-08 06:00:00 -7.7 15 Nordeste 20 Nordeste 0 -- -- 86
2021-01-08 05:00:00 -7.1 14 Nordeste 24 Este 0 -- -- 84
2021-01-08 04:00:00 -4.6 16 Este 24 Este 0 -- -- 77
2021-01-08 03:00:00 -6.3 15 Nordeste 21 Este 0 -- -- 83
2021-01-08 02:00:00 -5.5 13 Nordeste 25 Este 0 -- -- 77
2021-01-08 01:00:00 -3.7 14 Este 21 Este 0 -- -- 72
2021-01-08 00:00:00 -3.7 13 Este 22 Este 0 -- -- 74
2021-01-07 23:00:00 -3.1 14 Este 22 Este 0 -- -- 71
2021-01-07 22:00:00 -2.9 15 Este 24 Este 0 -- -- 67
2021-01-07 21:00:00 -2.6 16 Este 22 Este 0 -- -- 65
2021-01-07 20:00:00 -2.4 12 Este 26 Este 0 -- -- 63
2021-01-07 19:00:00 -2.4 15 Este 24 Este 0 -- -- 64
2021-01-07 18:00:00 -2.2 10 Este 17 Este 0 -- -- 71
2021-01-07 17:00:00 -0.5 12 Nordeste 22 Este 0 -- -- 66
2021-01-07 16:00:00 -0.1 13 Este 23 Este 0 -- -- 67
2021-01-07 15:00:00 0.4 14 Nordeste 22 Este 0 -- -- 67
2021-01-07 14:00:00 0.8 8 Sudeste 19 Sudeste 0 -- -- 67
2021-01-07 13:00:00 0.3 6 Sudeste 23 Este 0 -- -- 67
2021-01-07 12:00:00 -0.9 12 Este 26 Este 0 -- -- 70
2021-01-07 11:00:00 -1.4 22 Este 34 Este 0 -- -- 72
2021-01-07 10:00:00 -1.9 13 Este 23 Este 0 -- -- 74
2021-01-07 09:00:00 -2.3 16 Este 27 Sudeste 0 -- -- 75
2021-01-07 08:00:00 -2.3 18 Este 34 Este 0 -- -- 75
2021-01-07 07:00:00 -2.3 21 Este 33 Este 0 -- -- 75
2021-01-07 06:00:00 -2 18 Este 29 Este 0 -- -- 73
2021-01-07 05:00:00 -2.1 18 Este 30 Este 0 -- -- 73
2021-01-07 04:00:00 -2.5 15 Este 25 Este 0 -- -- 75
2021-01-07 03:00:00 -2.5 17 Este 31 Este 0 -- -- 75
2021-01-07 02:00:00 -2.4 16 Este 30 Este 0 -- -- 77
2021-01-07 01:00:00 -2.5 15 Este 26 Este 0 -- -- 77
2021-01-07 00:00:00 -3.4 9 Este 19 Este 0 -- -- 80
2021-01-06 23:00:00 -3.2 11 Este 19 Este 0 -- -- 79
2021-01-06 22:00:00 -3.3 13 Este 18 Este 0 -- -- 80
2021-01-06 21:00:00 -3.7 10 Este 14 Este 0 -- -- 82
2021-01-06 20:00:00 -3.8 10 Este 12 Este 0 -- -- 80
2021-01-06 19:00:00 -2.8 10 Nordeste 15 Este 0 -- -- 76
2021-01-06 18:00:00 -1.2 5 Este 13 Nordeste 0 -- -- 67
2021-01-06 17:00:00 0.2 8 Nordeste 14 Nordeste 0 -- -- 62
2021-01-06 16:00:00 0.7 8 Nordeste 16 Nordeste 0 -- -- 63
2021-01-06 15:00:00 0.8 7 Nordeste 18 Nordeste 0 -- -- 64
2021-01-06 14:00:00 0.7 8 Nordeste 19 Este 0 -- -- 71
2021-01-06 13:00:00 0.3 7 Este 15 Nordeste 0 -- -- 77
2021-01-06 12:00:00 0.2 7 Nordeste 13 Nordeste 0 -- -- 82
2021-01-06 11:00:00 -0.6 8 Nordeste 12 Este 0 -- -- 86
2021-01-06 10:00:00 -2.8 5 Este 8 Este 0 -- -- 96
2021-01-06 09:00:00 -4.7 6 Este 9 Este 0 -- -- 95
2021-01-06 08:00:00 -5 5 Este 7 Sudeste 0 -- -- 95
2021-01-06 07:00:00 -4.6 5 Este 6 Este 0 -- -- 94
2021-01-06 06:00:00 -4.1 4 Este 5 Este 0 -- -- 93
2021-01-06 05:00:00 -3.8 5 Sudeste -- -- 0 -- -- 93
2021-01-06 04:00:00 -4.2 8 Sudeste 9 Sudeste 0 -- -- 90
2021-01-06 03:00:00 -4.3 6 Sudeste 6 Este 0 -- -- 89
2021-01-06 02:00:00 -3.6 0 Calma 3 Sudeste 0 -- -- 84
2021-01-06 01:00:00 -4.7 2 Este 5 Sudeste 0 -- -- 88
2021-01-06 00:00:00 -5 5 Este 7 Este 0 -- -- 88
2021-01-05 23:00:00 -3.8 6 Sudeste 8 Sudeste 0 -- -- 89
2021-01-05 22:00:00 -3.1 4 Sudeste 6 Sudeste 0 -- -- 90
2021-01-05 21:00:00 -3.8 4 Sudeste 6 Sudeste 0 -- -- 89
2021-01-05 20:00:00 -3.2 0 Calma 3 Sudeste 0 -- -- 84
2021-01-05 19:00:00 -2.2 0 Calma 3 Sudoeste 0 -- -- 84
2021-01-05 18:00:00 -0.8 3 Sudoeste 9 Oeste 0 -- -- 78
2021-01-05 17:00:00 0.3 6 Oeste 14 Oeste 0 -- -- 74
2021-01-05 16:00:00 0.8 8 Sudoeste 16 Oeste 0.2 -- -- 72
2021-01-05 15:00:00 0.5 9 Oeste 19 Sudoeste 0 -- -- 74
2021-01-05 14:00:00 0.1 11 Oeste 19 Sudoeste 0 -- -- 75
2021-01-05 13:00:00 -0.1 10 Sudoeste 17 Sudoeste 0.2 -- -- 77
2021-01-05 12:00:00 -0.6 10 Sudoeste 15 Sudoeste 0.4 -- -- 78
2021-01-05 11:00:00 -1.8 9 Sudoeste 15 Oeste 0 -- -- 86
2021-01-05 10:00:00 -3.5 5 Sudoeste 12 Sudoeste 0 -- -- 93
2021-01-05 09:00:00 -5.4 10 Sudoeste 14 Sudoeste 0 -- -- 96
2021-01-05 08:00:00 -5.2 8 Sudoeste 13 Sudoeste 0 -- -- 97
2021-01-05 07:00:00 -5 10 Sudoeste 13 Sudoeste 0 -- -- 98
2021-01-05 06:00:00 -4.7 9 Sudoeste 13 Sudoeste 0 -- -- 100
2021-01-05 05:00:00 -4.1 7 Sudoeste 13 Sudoeste 0 -- -- 100
2021-01-05 04:00:00 -3.7 10 Sudoeste 14 Sudoeste 0 -- -- 100
2021-01-05 03:00:00 -3.3 10 Sudoeste 15 Sudoeste 0 -- -- 100
2021-01-05 02:00:00 -3.1 9 Oeste 15 Sudoeste 0 -- -- 100
2021-01-05 01:00:00 -3.1 9 Sudoeste 14 Sudoeste 0 -- -- 99
2021-01-05 00:00:00 -2.5 7 Sudoeste 12 Sudoeste 0 -- -- 98
2021-01-04 23:00:00 -2.6 5 Sudoeste 10 Sudoeste 0 -- -- 97
2021-01-04 22:00:00 -2.6 6 Sudoeste 12 Sudoeste 0 -- -- 96
2021-01-04 21:00:00 -2.6 6 Sudoeste 15 Oeste 0 -- -- 96
2021-01-04 20:00:00 -1.8 7 Oeste 15 Norte 0 -- -- 95
2021-01-04 19:00:00 -1.4 9 Sudoeste 17 Oeste 0 -- -- 90
2021-01-04 18:00:00 -0.7 12 Oeste 22 Oeste 0 -- -- 87
2021-01-04 17:00:00 -0.1 16 Oeste 31 Oeste 0.2 -- -- 82
2021-01-04 16:00:00 0.2 18 Oeste 35 Sudoeste 0 -- -- 86
2021-01-04 15:00:00 -0.8 19 Oeste 38 Oeste 0.2 -- -- 88
2021-01-04 14:00:00 -0.2 24 Sudoeste 40 Sudoeste 0.2 -- -- 87
2021-01-04 13:00:00 -1.6 25 Sudoeste 36 Sudoeste 0.4 -- -- 95
2021-01-04 12:00:00 -2.1 23 Sudoeste 31 Sudoeste 0 -- -- 100
2021-01-04 11:00:00 -2.9 12 Sudoeste 24 Sudoeste 0 -- -- 100
2021-01-04 10:00:00 -3.3 12 Sudoeste 26 Sudoeste 0 -- -- 100
2021-01-04 09:00:00 -4 12 Sudoeste 23 Sudoeste 0 -- -- 100
2021-01-04 08:00:00 -3.7 17 Sudoeste 27 Sudoeste 0 -- -- 100
2021-01-04 07:00:00 -3.7 15 Sudoeste 26 Sudoeste 0 -- -- 100
2021-01-04 06:00:00 -3 16 Sudoeste 27 Sudoeste 0 -- -- 100
2021-01-04 05:00:00 -2.8 21 Oeste 30 Sudoeste 0 -- -- 100
2021-01-04 04:00:00 -2.7 21 Sudoeste 32 Sudoeste 0 -- -- 100
2021-01-04 03:00:00 -2.3 15 Oeste 30 Oeste 0 -- -- 100
2021-01-04 02:00:00 -2.2 19 Oeste 34 Sudoeste 0 -- -- 100
2021-01-04 01:00:00 -1.9 20 Sudoeste 27 Sudoeste 0 -- -- 100
2021-01-04 00:00:00 -1.8 17 Oeste 30 Sudoeste 0 -- -- 100
2021-01-03 23:00:00 -1.5 21 Sudoeste 33 Oeste 0 -- -- 100
2021-01-03 22:00:00 -1.2 21 Sudoeste 34 Sudoeste 0 -- -- 100
2021-01-03 21:00:00 -1.4 23 Sudoeste 40 Sudoeste 0 -- -- 100
2021-01-03 20:00:00 -1.6 25 Sudoeste 40 Sudoeste 0 -- -- 98
2021-01-03 19:00:00 -2.3 24 Sudoeste 39 Sudoeste 0 -- -- 98
2021-01-03 18:00:00 -2.6 25 Sudoeste 37 Sudoeste 0 -- -- 96
2021-01-03 17:00:00 -1.3 22 Sudoeste 34 Sudoeste 0.2 -- -- 93
2021-01-03 16:00:00 0 19 Sudoeste 30 Sudoeste 0.2 -- -- 87
2021-01-03 15:00:00 -0.3 18 Sudoeste 36 Sudoeste 0 -- -- 88
2021-01-03 14:00:00 -0.6 26 Sudoeste 37 Sudoeste 0 -- -- 87
2021-01-03 13:00:00 -1 23 Sudoeste 36 Sudoeste 0.4 -- -- 92
2021-01-03 12:00:00 -1.7 25 Sudoeste 39 Oeste 0 -- -- 95
2021-01-03 11:00:00 -3.2 17 Sudoeste 27 Sudoeste 0 -- -- 98
2021-01-03 10:00:00 -3.9 17 Sudoeste 31 Sudoeste 0 -- -- 99
2021-01-03 09:00:00 -4.5 15 Sudoeste 30 Sudoeste 0 -- -- 99
2021-01-03 08:00:00 -4.7 13 Sudoeste 21 Sudoeste 0 -- -- 99
2021-01-03 07:00:00 -4.8 10 Sudoeste 19 Sudoeste 0 -- -- 97
2021-01-03 06:00:00 -5 11 Sudoeste 15 Sudoeste 0 -- -- 96
2021-01-03 05:00:00 -3.9 11 Sudoeste 15 Sudoeste 0 -- -- 94
2021-01-03 04:00:00 -3.7 11 Sudoeste 16 Sudoeste 0 -- -- 96
2021-01-03 03:00:00 -4.1 11 Sudoeste 16 Sudoeste 0 -- -- 95
2021-01-03 02:00:00 -3.4 7 Sudoeste 10 Sudoeste 0 -- -- 94
2021-01-03 01:00:00 -3.3 5 Sudoeste 9 Oeste 0 -- -- 94
2021-01-03 00:00:00 -3.4 5 Oeste 6 Oeste 0 -- -- 94
2021-01-02 23:00:00 -3.6 3 Sudoeste 9 Norte 0 -- -- 94
2021-01-02 22:00:00 -3.5 6 Norte 20 Norte 0 -- -- 94
2021-01-02 21:00:00 -3.6 12 Norte 21 Noroeste 0 -- -- 92
2021-01-02 20:00:00 -3.7 11 Noroeste 18 Norte 0 -- -- 91
2021-01-02 19:00:00 -3.5 10 Noroeste 18 Norte 0 -- -- 93
2021-01-02 18:00:00 -2.3 12 Noroeste 28 Norte 0 -- -- 91
2021-01-02 17:00:00 -1.9 16 Noroeste 33 Noroeste 0 -- -- 89
2021-01-02 16:00:00 -1.2 22 Norte 38 Norte 0 -- -- 85
2021-01-02 15:00:00 -1.8 18 Noroeste 32 Noroeste 0.2 -- -- 91
2021-01-02 14:00:00 -2.3 19 Noroeste 32 Norte 0 -- -- 93